Time;durP1;ratioP1;P1;durP2;ratioP2;P2;SDS_P1;SDS_P2;PMS_P1;PMS_P2;Temp;Humidity;BMP_temperature;BMP_pressure;BME280_temperature;BME280_humidity;BME280_pressure;Samples;Min_cycle;Max_cycle;Signal;HPM_P1;HPM_P2
2022/04/07 14:42:28;;;;;;;11.50;4.42;;;;;;;20.95;28.89;100168.90;1669060;83;20988;-82
2022/04/07 14:44:55;;;;;;;8.63;4.28;;;;;;;20.91;28.71;100165.22;1678815;83;21062;-82
2022/04/07 14:47:21;;;;;;;10.98;3.90;;;;;;;20.89;28.73;100150.51;1654602;84;21011;-82
2022/04/07 14:49:48;;;;;;;10.60;4.08;;;;;;;20.84;28.58;100155.63;1653099;84;21604;-82
2022/04/07 14:52:14;;;;;;;9.35;4.53;;;;;;;20.78;28.74;100147.40;1663276;83;20963;-82
2022/04/07 14:54:42;;;;;;;10.58;4.95;;;;;;;20.75;28.84;100142.59;1666814;83;21031;-82
2022/04/07 14:57:08;;;;;;;10.48;5.30;;;;;;;20.72;28.61;100136.43;1649557;84;21226;-81
2022/04/07 14:59:35;;;;;;;24.47;9.80;;;;;;;20.67;28.81;100134.48;1646385;85;21289;-81
2022/04/07 15:02:02;;;;;;;43.20;16.80;;;;;;;20.64;28.55;100142.22;1620172;86;22622;-82
2022/04/07 15:04:28;;;;;;;52.10;24.70;;;;;;;20.58;28.51;100140.05;1629046;85;20982;-83
2022/04/07 15:06:54;;;;;;;36.65;22.77;;;;;;;20.53;28.56;100134.23;1627804;86;21217;-82
2022/04/07 15:09:20;;;;;;;18.60;10.15;;;;;;;20.44;28.33;100119.78;1641078;85;21547;-82
2022/04/07 15:11:47;;;;;;;8.55;6.30;;;;;;;20.38;28.28;100127.43;1628107;85;21154;-82
2022/04/07 15:14:13;;;;;;;13.45;4.97;;;;;;;20.37;28.39;100119.54;1647914;85;21932;-83
2022/04/07 15:16:40;;;;;;;9.80;4.42;;;;;;;20.36;28.68;100113.84;1622158;85;21594;-83
2022/04/07 15:19:08;;;;;;;11.75;4.65;;;;;;;20.31;28.52;100122.27;1650580;85;21017;-82
2022/04/07 15:21:36;;;;;;;12.33;5.20;;;;;;;20.16;28.52;100116.27;1644961;84;21067;-82
2022/04/07 15:24:02;;;;;;;17.27;5.00;;;;;;;20.01;28.57;100108.69;1659162;84;21068;-82
2022/04/07 15:26:28;;;;;;;14.18;5.05;;;;;;;19.89;28.65;100107.27;1660678;83;21172;-82
2022/04/07 15:28:55;;;;;;;11.38;5.45;;;;;;;19.75;28.90;100104.80;1651538;84;21107;-82
2022/04/07 15:31:21;;;;;;;13.18;5.65;;;;;;;19.64;29.08;100098.09;1654309;85;21105;-83
2022/04/07 15:33:49;;;;;;;15.50;4.47;;;;;;;19.48;29.14;100095.95;1645719;85;21052;-83
2022/04/07 15:36:15;;;;;;;8.43;4.15;;;;;;;19.37;29.30;100095.30;1674325;84;21211;-83
2022/04/07 15:38:42;;;;;;;11.68;4.90;;;;;;;19.19;29.55;100099.50;1672982;83;21094;-83
2022/04/07 15:41:09;;;;;;;13.20;5.15;;;;;;;18.96;29.72;100089.98;1653143;84;21605;-83
2022/04/07 15:43:40;;;;;;;16.97;5.40;;;;;;;18.80;30.17;100083.70;1674558;83;21027;-81
2022/04/07 15:46:07;;;;;;;14.03;5.53;;;;;;;18.66;30.24;100089.91;1643317;86;21016;-82
2022/04/07 15:48:33;;;;;;;14.40;5.20;;;;;;;18.46;30.50;100084.58;1660872;83;21516;-83
2022/04/07 15:51:02;;;;;;;10.48;4.45;;;;;;;18.24;30.60;100087.53;1650449;83;21479;-82
2022/04/07 15:53:28;;;;;;;15.60;5.33;;;;;;;18.06;30.91;100086.73;1651856;85;22227;-82
2022/04/07 15:55:57;;;;;;;9.20;4.67;;;;;;;17.88;31.03;100081.85;1665545;84;21106;-82
2022/04/07 15:58:27;;;;;;;13.10;4.78;;;;;;;17.75;31.12;100075.98;1656685;83;21020;-83
2022/04/07 16:00:54;;;;;;;13.05;5.00;;;;;;;17.57;31.15;100070.52;1660720;83;21028;-81
2022/04/07 16:03:21;;;;;;;10.48;4.60;;;;;;;17.42;31.30;100072.36;1652283;85;21891;-79
2022/04/07 16:05:47;;;;;;;12.23;4.75;;;;;;;17.23;31.49;100065.81;1663226;83;20957;-79
2022/04/07 16:08:14;;;;;;;15.60;5.12;;;;;;;17.05;31.58;100065.53;1666929;84;21050;-79
2022/04/07 16:10:40;;;;;;;13.10;5.00;;;;;;;16.85;31.77;100065.55;1662900;83;21133;-79
2022/04/07 16:13:06;;;;;;;18.32;5.37;;;;;;;16.71;31.95;100064.28;1660902;83;21040;-79
2022/04/07 16:15:33;;;;;;;19.85;7.40;;;;;;;16.52;32.11;100054.41;1651318;84;21076;-79
2022/04/07 16:18:00;;;;;;;21.27;8.15;;;;;;;16.36;32.43;100047.79;1655152;83;21213;-80
2022/04/07 16:20:28;;;;;;;30.82;12.50;;;;;;;16.19;32.54;100051.77;1665770;83;21138;-80
2022/04/07 16:22:55;;;;;;;38.28;13.75;;;;;;;16.01;32.89;100051.65;1656589;83;21011;-81
2022/04/07 16:25:22;;;;;;;32.30;10.98;;;;;;;15.84;33.10;100044.16;1660415;84;20999;-81
2022/04/07 16:27:50;;;;;;;19.15;7.40;;;;;;;15.45;33.76;100017.07;1666044;83;21137;-81
2022/04/07 16:30:17;;;;;;;15.08;6.45;;;;;;;15.45;33.76;100017.07;1672999;83;21565;-81
2022/04/07 16:32:44;;;;;;;14.10;5.00;;;;;;;15.41;33.71;100035.09;1674562;83;21020;-81
2022/04/07 16:35:11;;;;;;;9.83;4.15;;;;;;;15.22;34.06;100031.15;1651218;84;21075;-81
2022/04/07 16:37:37;;;;;;;16.20;4.45;;;;;;;15.10;34.31;100031.43;1658580;83;21125;-81
2022/04/07 16:40:05;;;;;;;10.65;3.58;;;;;;;14.95;34.52;100031.19;1666114;83;21172;-81
2022/04/07 16:42:33;;;;;;;12.33;4.50;;;;;;;14.79;34.78;100025.81;1665697;83;21289;-81
2022/04/07 16:44:59;;;;;;;8.95;4.33;;;;;;;14.68;34.98;100033.36;1649810;84;21639;-81
2022/04/07 16:47:25;;;;;;;12.37;4.47;;;;;;;14.55;35.26;100030.87;1644920;85;21131;-81
2022/04/07 16:49:52;;;;;;;15.28;4.72;;;;;;;14.40;35.47;100033.29;1638569;84;21095;-81
2022/04/07 16:52:18;;;;;;;12.78;5.20;;;;;;;14.21;35.70;100034.72;1645046;84;21147;-81
2022/04/07 16:54:44;;;;;;;14.63;4.87;;;;;;;14.07;36.15;100037.38;1656806;84;21205;-81
2022/04/07 16:57:11;;;;;;;10.15;4.60;;;;;;;13.93;36.09;100033.02;1648666;84;21198;-81
2022/04/07 16:59:39;;;;;;;8.73;4.28;;;;;;;13.80;36.46;100031.88;1639679;85;21633;-82
2022/04/07 17:02:06;;;;;;;16.17;6.37;;;;;;;13.65;36.72;100030.22;1649847;85;21052;-82
2022/04/07 17:04:36;;;;;;;9.65;4.83;;;;;;;13.50;37.01;100027.71;1651950;84;21186;-81
2022/04/07 17:07:04;;;;;;;12.05;5.70;;;;;;;13.38;37.45;100026.27;1647471;83;21063;-80
2022/04/07 17:09:30;;;;;;;14.53;5.75;;;;;;;13.26;37.68;100031.84;1609816;86;21272;-81
2022/04/07 17:12:02;;;;;;;22.15;7.42;;;;;;;13.13;37.84;100037.40;1607989;86;21108;-81
2022/04/07 17:14:31;;;;;;;14.73;6.42;;;;;;;13.04;38.10;100045.91;1601533;86;21155;-81
2022/04/07 17:16:58;;;;;;;16.27;5.85;;;;;;;12.93;38.42;100046.56;1578412;89;22980;-81
2022/04/07 17:19:25;;;;;;;13.38;5.70;;;;;;;12.79;38.67;100038.34;1561047;89;21049;-81
2022/04/07 17:21:52;;;;;;;13.80;5.72;;;;;;;12.68;38.83;100049.83;1576246;88;21466;-81
2022/04/07 17:24:20;;;;;;;14.03;5.92;;;;;;;12.55;38.99;100041.59;1581703;89;21168;-81
2022/04/07 17:26:48;;;;;;;17.20;5.95;;;;;;;12.45;39.30;100046.56;1562211;89;21329;-82
2022/04/07 17:29:15;;;;;;;13.65;5.72;;;;;;;12.38;39.44;100044.20;1583857;88;21283;-81
2022/04/07 17:31:42;;;;;;;13.95;6.28;;;;;;;12.27;39.84;100044.83;1555731;89;21670;-81
2022/04/07 17:34:15;;;;;;;13.95;5.53;;;;;;;12.14;40.25;100048.18;1580751;89;21177;-81
2022/04/07 17:36:42;;;;;;;17.65;6.15;;;;;;;12.06;40.30;100051.52;1523653;92;21147;-81
2022/04/07 17:39:12;;;;;;;16.25;6.17;;;;;;;11.99;40.55;100057.77;1519569;91;21026;-81
2022/04/07 17:41:39;;;;;;;16.48;6.25;;;;;;;11.87;41.05;100055.42;1490698;94;21302;-81
2022/04/07 17:44:06;;;;;;;17.05;5.72;;;;;;;11.78;41.29;100055.73;1493319;94;21272;-81
2022/04/07 17:46:38;;;;;;;16.07;6.22;;;;;;;11.71;41.28;100060.11;1490894;94;21181;-81
2022/04/07 17:49:07;;;;;;;16.15;5.58;;;;;;;11.60;41.51;100053.95;1473053;94;21057;-81
2022/04/07 17:51:32;;;;;;;17.02;6.10;;;;;;;11.57;41.63;100058.56;1477252;95;21185;-86
2022/04/07 17:53:59;;;;;;;18.07;6.10;;;;;;;11.49;41.87;100055.10;1473043;95;21150;-83
2022/04/07 17:56:27;;;;;;;16.12;6.22;;;;;;;11.41;42.09;100056.23;1474155;95;21123;-83
2022/04/07 17:58:54;;;;;;;13.22;5.87;;;;;;;11.33;42.23;100049.00;1475712;95;21131;-82
2022/04/07 18:01:20;;;;;;;13.90;5.42;;;;;;;11.26;42.51;100049.03;1477780;95;21139;-82
2022/04/07 18:03:47;;;;;;;12.73;5.65;;;;;;;11.20;42.69;100044.20;1471255;95;22283;-83
2022/04/07 18:06:14;;;;;;;13.20;5.60;;;;;;;11.14;42.78;100049.35;1470965;96;21242;-83
2022/04/07 18:08:41;;;;;;;11.73;5.65;;;;;;;11.10;42.79;100045.61;1467951;96;21793;-83
2022/04/07 18:11:07;;;;;;;12.43;5.50;;;;;;;11.04;42.83;100043.47;1461365;95;21132;-83
2022/04/07 18:13:34;;;;;;;14.30;5.75;;;;;;;10.95;42.91;100037.59;1457642;94;21122;-83
2022/04/07 18:16:01;;;;;;;11.48;4.90;;;;;;;10.87;43.43;100042.45;1459174;96;21103;-83
2022/04/07 18:18:28;;;;;;;10.65;4.90;;;;;;;10.78;43.13;100045.45;1460038;97;21285;-82
2022/04/07 18:20:56;;;;;;;9.08;4.55;;;;;;;10.75;43.30;100039.81;1485913;93;21660;-83
2022/04/07 18:23:22;;;;;;;9.58;4.55;;;;;;;10.70;43.19;100040.62;1512141;93;21157;-83
2022/04/07 18:25:50;;;;;;;10.95;4.58;;;;;;;10.62;43.11;100039.31;1509203;92;21138;-83
2022/04/07 18:28:17;;;;;;;12.55;5.53;;;;;;;10.52;43.26;100033.94;1504772;93;21112;-83
2022/04/07 18:30:46;;;;;;;11.28;4.80;;;;;;;10.41;43.73;100026.43;1507671;94;21182;-82
2022/04/07 18:33:14;;;;;;;13.18;5.65;;;;;;;10.32;43.91;100031.28;1518725;93;21107;-83
2022/04/07 18:35:42;;;;;;;16.82;6.20;;;;;;;10.25;43.91;100028.84;1509066;94;21120;-82
2022/04/07 18:38:09;;;;;;;11.53;5.08;;;;;;;10.18;43.74;100026.43;1541013;88;21617;-83
2022/04/07 18:40:36;;;;;;;17.73;6.45;;;;;;;10.12;43.65;100019.98;1598642;88;21177;-83
2022/04/07 18:43:03;;;;;;;24.65;7.97;;;;;;;10.02;44.51;100011.36;1595081;88;21117;-82
2022/04/07 18:45:30;;;;;;;9.30;4.20;;;;;;;9.94;44.18;100012.72;1615202;83;21486;-83
2022/04/07 18:47:58;;;;;;;14.53;5.50;;;;;;;9.91;44.95;100012.43;1655951;84;21435;-82
2022/04/07 18:50:26;;;;;;;12.37;4.17;;;;;;;9.86;45.25;100012.45;1665475;84;21114;-82
2022/04/07 18:52:53;;;;;;;12.73;4.67;;;;;;;9.81;46.21;100011.90;1660971;85;21198;-82
2022/04/07 18:55:19;;;;;;;8.60;4.17;;;;;;;9.74;45.71;100004.65;1667115;84;21219;-82
2022/04/07 18:57:46;;;;;;;11.57;4.67;;;;;;;9.64;46.28;100002.73;1659180;83;21086;-82
2022/04/07 19:00:14;;;;;;;12.78;5.33;;;;;;;9.58;46.95;99997.62;1650556;83;21000;-81
2022/04/07 19:02:42;;;;;;;13.80;5.17;;;;;;;9.50;47.33;99999.78;1647979;84;21132;-82
2022/04/07 19:05:15;;;;;;;16.60;5.45;;;;;;;9.43;48.61;99996.53;1654705;83;21174;-83
2022/04/07 19:07:41;;;;;;;13.35;5.90;;;;;;;9.29;49.02;99984.67;1651570;84;21008;-82
2022/04/07 19:10:09;;;;;;;16.23;5.92;;;;;;;9.16;48.38;99978.48;1656826;83;22637;-83
2022/04/07 19:12:43;;;;;;;14.73;5.50;;;;;;;9.03;48.36;99977.91;1671363;83;21090;-82
2022/04/07 19:15:11;;;;;;;14.87;5.75;;;;;;;8.89;49.57;99978.13;1666513;84;21484;-82
2022/04/07 19:17:39;;;;;;;14.35;5.75;;;;;;;8.83;51.36;99979.99;1654559;84;21133;-82
2022/04/07 19:20:08;;;;;;;16.40;5.17;;;;;;;8.77;54.46;99970.84;1656285;84;21539;-82
2022/04/07 19:22:35;;;;;;;13.28;5.22;;;;;;;8.71;53.87;99970.55;1636065;87;21421;-82
2022/04/07 19:25:02;;;;;;;11.45;5.37;;;;;;;8.66;52.62;99963.81;1651735;85;21106;-82
2022/04/07 19:27:29;;;;;;;14.38;5.22;;;;;;;8.59;54.03;99955.45;1646747;84;21104;-82
2022/04/07 19:29:56;;;;;;;14.05;5.35;;;;;;;8.54;53.48;99954.09;1661410;84;21181;-82
2022/04/07 19:32:23;;;;;;;13.83;5.65;;;;;;;8.49;52.87;99945.20;1666623;84;21880;-82
2022/04/07 19:34:50;;;;;;;12.18;5.22;;;;;;;8.45;52.37;99942.23;1674746;83;21102;-82
2022/04/07 19:37:16;;;;;;;12.25;5.53;;;;;;;8.40;52.52;99939.52;1652281;83;21106;-82
2022/04/07 19:39:42;;;;;;;10.53;5.10;;;;;;;8.35;52.75;99938.95;1650850;85;21055;-82
2022/04/07 19:42:10;;;;;;;10.90;4.83;;;;;;;8.30;52.85;99930.05;1659040;84;21149;-82
2022/04/07 19:44:38;;;;;;;14.90;5.67;;;;;;;8.26;52.61;99926.26;1656494;84;21199;-83
2022/04/07 19:47:07;;;;;;;12.00;5.20;;;;;;;8.22;57.52;99929.20;1671603;84;21028;-83
2022/04/07 19:49:34;;;;;;;13.28;4.75;;;;;;;8.18;55.76;99919.52;1679735;83;21078;-82
2022/04/07 19:52:02;;;;;;;13.75;6.42;;;;;;;8.17;55.19;99921.91;1678910;83;21035;-82
2022/04/07 19:54:29;;;;;;;21.52;7.85;;;;;;;8.14;55.19;99914.39;1664901;84;21047;-82
2022/04/07 19:56:56;;;;;;;27.65;7.80;;;;;;;8.07;55.51;99915.97;1665846;84;21205;-83
2022/04/07 19:59:22;;;;;;;30.10;9.88;;;;;;;8.00;56.71;99911.89;1652007;85;21166;-83
2022/04/07 20:01:48;;;;;;;27.05;9.95;;;;;;;7.91;57.32;99901.67;1651451;86;21166;-83
2022/04/07 20:04:15;;;;;;;27.70;8.65;;;;;;;7.84;58.38;99911.00;1623959;86;21083;-82
2022/04/07 20:06:42;;;;;;;20.25;8.18;;;;;;;7.76;60.07;99902.89;1652783;85;21577;-82
2022/04/07 20:09:09;;;;;;;21.20;8.53;;;;;;;7.69;60.93;99899.09;1650861;86;21648;-82
2022/04/07 20:11:35;;;;;;;17.92;7.60;;;;;;;7.65;61.64;99894.52;1654532;85;21074;-83
2022/04/07 20:14:01;;;;;;;20.48;8.05;;;;;;;7.61;61.87;99893.41;1655875;85;21075;-82
2022/04/07 20:16:28;;;;;;;20.05;7.92;;;;;;;7.57;62.42;99894.45;1656996;85;21090;-82
2022/04/07 20:18:56;;;;;;;23.25;8.15;;;;;;;7.54;62.94;99894.97;1667411;83;21857;-82
2022/04/07 20:21:22;;;;;;;21.35;8.38;;;;;;;7.52;63.62;99893.06;1651633;85;21481;-82
2022/04/07 20:23:48;;;;;;;27.95;10.13;;;;;;;7.43;64.32;99885.23;1654672;84;21079;-82
2022/04/07 20:26:15;;;;;;;28.05;10.40;;;;;;;7.35;67.17;99879.80;1676716;83;21027;-82
2022/04/07 20:28:41;;;;;;;23.18;9.78;;;;;;;7.31;67.12;99873.88;1677239;83;21143;-82
2022/04/07 20:31:07;;;;;;;31.10;10.72;;;;;;;7.26;69.09;99864.75;1670998;84;21068;-82
2022/04/07 20:33:33;;;;;;;30.43;11.25;;;;;;;7.20;68.59;99863.06;1665059;83;21229;-82
2022/04/07 20:36:00;;;;;;;30.30;11.20;;;;;;;7.18;72.16;99860.39;1652214;85;21127;-82
2022/04/07 20:38:26;;;;;;;29.90;11.65;;;;;;;7.15;75.42;99859.55;1654134;84;21141;-82
2022/04/07 20:40:52;;;;;;;27.90;10.95;;;;;;;7.13;77.78;99857.12;1661036;84;21083;-82
2022/04/07 20:43:19;;;;;;;33.83;12.20;;;;;;;7.11;76.10;99855.75;1656880;84;21472;-82
2022/04/07 20:45:45;;;;;;;33.58;14.15;;;;;;;7.08;75.65;99857.06;1660588;84;21059;-81
2022/04/07 20:48:11;;;;;;;34.43;13.60;;;;;;;7.04;76.19;99851.42;1655578;84;20969;-81
2022/04/07 20:50:37;;;;;;;44.33;14.00;;;;;;;7.01;76.10;99851.13;1662472;83;21252;-82
2022/04/07 20:53:04;;;;;;;35.98;13.78;;;;;;;6.97;78.05;99850.00;1660307;84;21118;-82
2022/04/07 20:55:30;;;;;;;38.58;14.33;;;;;;;6.92;79.16;99846.76;1649732;84;21543;-82
2022/04/07 20:57:56;;;;;;;39.10;14.55;;;;;;;6.87;79.53;99851.25;1658976;83;21564;-82
2022/04/07 21:00:22;;;;;;;42.67;15.88;;;;;;;6.81;81.45;99840.48;1663407;84;21008;-82
2022/04/07 21:02:49;;;;;;;47.05;16.40;;;;;;;6.75;81.99;99841.50;1648514;85;21013;-83
2022/04/07 21:05:17;;;;;;;42.00;15.70;;;;;;;6.69;82.21;99835.02;1652303;85;21024;-82
2022/04/07 21:07:43;;;;;;;44.55;14.85;;;;;;;6.65;84.15;99840.08;1654621;85;21051;-83
2022/04/07 21:10:10;;;;;;;44.93;14.28;;;;;;;6.60;84.03;99833.33;1656298;85;21072;-83
2022/04/07 21:12:36;;;;;;;40.35;14.55;;;;;;;6.59;84.38;99831.72;1654656;85;21606;-82
2022/04/07 21:15:03;;;;;;;37.63;12.93;;;;;;;6.56;83.73;99824.20;1663947;84;21087;-82
2022/04/07 21:17:29;;;;;;;40.12;13.62;;;;;;;6.55;83.70;99817.20;1656413;84;21113;-81
2022/04/07 21:19:55;;;;;;;39.60;13.68;;;;;;;6.53;82.91;99816.13;1660864;84;21106;-82
2022/04/07 21:22:21;;;;;;;33.98;12.23;;;;;;;6.51;83.73;99812.89;1670716;84;21520;-82
2022/04/07 21:24:48;;;;;;;35.83;12.60;;;;;;;6.51;84.55;99810.75;1671532;84;21051;-82
2022/04/07 21:27:15;;;;;;;27.73;10.65;;;;;;;6.49;85.42;99806.97;1657314;84;21013;-82
2022/04/07 21:29:41;;;;;;;28.85;11.10;;;;;;;6.46;84.97;99804.00;1651017;85;21178;-82
2022/04/07 21:32:07;;;;;;;28.07;10.28;;;;;;;6.45;86.20;99798.38;1658181;84;21093;-82
2022/04/07 21:34:34;;;;;;;29.50;11.33;;;;;;;6.44;85.74;99799.42;1661468;83;21161;-82
2022/04/07 21:37:00;;;;;;;28.45;10.53;;;;;;;6.42;86.36;99795.67;1652449;84;21582;-84
2022/04/07 21:39:26;;;;;;;21.55;9.85;;;;;;;6.41;87.61;99791.89;1663733;84;21075;-83
2022/04/07 21:41:52;;;;;;;24.77;10.15;;;;;;;6.37;87.84;99788.92;1603277;87;21051;-83
2022/04/07 21:44:19;;;;;;;26.90;10.48;;;;;;;6.34;87.70;99791.56;1618109;86;20987;-82
2022/04/07 21:46:45;;;;;;;26.17;10.88;;;;;;;6.33;87.71;99783.27;1621452;86;21086;-82
2022/04/07 21:49:11;;;;;;;28.62;10.32;;;;;;;6.32;87.76;99784.84;1622012;87;21106;-83
2022/04/07 21:51:37;;;;;;;27.82;9.68;;;;;;;6.29;87.43;99775.45;1619866;87;21055;-82
2022/04/07 21:54:04;;;;;;;29.32;10.72;;;;;;;6.27;87.86;99773.58;1620633;87;21251;-82
2022/04/07 21:56:30;;;;;;;25.35;10.20;;;;;;;6.27;88.51;99772.77;1619659;86;21667;-82
2022/04/07 21:58:57;;;;;;;33.13;10.85;;;;;;;6.24;87.87;99767.39;1622827;86;21126;-82
2022/04/07 22:01:26;;;;;;;30.90;11.03;;;;;;;6.24;88.25;99765.25;1613843;86;21520;-82
2022/04/07 22:03:52;;;;;;;28.12;10.50;;;;;;;6.23;88.71;99760.41;1617059;87;21160;-83
2022/04/07 22:06:19;;;;;;;30.40;12.10;;;;;;;6.24;89.77;99759.37;1627204;85;21125;-83
2022/04/07 22:08:45;;;;;;;31.77;11.73;;;;;;;6.23;88.92;99743.02;1659239;84;21015;-83
2022/04/07 22:11:11;;;;;;;28.38;11.18;;;;;;;6.23;90.85;99740.88;1659781;83;21502;-82
2022/04/07 22:13:38;;;;;;;34.53;12.70;;;;;;;6.25;90.29;99737.43;1653175;85;22321;-82
2022/04/07 22:16:04;;;;;;;33.90;11.88;;;;;;;6.26;91.17;99727.80;1651165;84;21015;-82
2022/04/07 22:18:30;;;;;;;33.18;12.53;;;;;;;6.29;91.38;99725.15;1655175;83;21512;-82
2022/04/07 22:20:57;;;;;;;30.37;12.63;;;;;;;6.31;91.72;99719.02;1651186;84;21052;-83
2022/04/07 22:23:23;;;;;;;30.35;12.75;;;;;;;6.29;92.03;99711.23;1646338;85;21176;-83
2022/04/07 22:25:49;;;;;;;34.55;13.70;;;;;;;6.29;93.11;99709.90;1661263;83;21134;-82
2022/04/07 22:28:16;;;;;;;41.13;13.03;;;;;;;6.25;94.26;99703.45;1662983;84;21487;-83
2022/04/07 22:30:42;;;;;;;38.17;12.35;;;;;;;6.24;94.03;99709.07;1666857;83;21180;-83
2022/04/07 22:33:08;;;;;;;32.20;12.60;;;;;;;6.22;95.23;99706.63;1664683;83;21195;-83
2022/04/07 22:35:34;;;;;;;31.70;12.45;;;;;;;6.21;96.55;99699.68;1656298;84;21678;-83
2022/04/07 22:38:01;;;;;;;35.35;14.28;;;;;;;6.20;96.20;99698.05;1659501;83;21078;-83
2022/04/07 22:40:27;;;;;;;38.05;14.68;;;;;;;6.18;97.24;99693.50;1664866;84;21085;-82
2022/04/07 22:42:54;;;;;;;40.73;14.83;;;;;;;6.16;96.95;99688.92;1655871;83;21951;-83
2022/04/07 22:45:21;;;;;;;36.83;13.98;;;;;;;6.16;97.19;99674.20;1664916;84;21627;-83
2022/04/07 22:47:47;;;;;;;37.75;14.47;;;;;;;6.17;97.10;99680.36;1654784;84;21133;-83
2022/04/07 22:50:18;;;;;;;47.88;15.25;;;;;;;6.18;97.63;99678.78;1655936;84;21136;-83
2022/04/07 22:52:46;;;;;;;39.53;15.40;;;;;;;6.17;99.05;99677.69;1648029;85;21762;-83
2022/04/07 22:55:17;;;;;;;39.92;14.33;;;;;;;6.17;98.45;99680.36;1652181;85;21049;-83
2022/04/07 22:57:44;;;;;;;37.28;12.98;;;;;;;6.16;98.00;99678.22;1560776;90;21180;-83
2022/04/07 23:00:15;;;;;;;34.98;13.43;;;;;;;6.16;99.29;99678.22;1561675;89;21249;-82
2022/04/07 23:02:44;;;;;;;30.72;12.68;;;;;;;6.17;99.31;99675.02;1564860;90;22267;-83
2022/04/07 23:05:13;;;;;;;33.18;13.30;;;;;;;6.17;100.00;99673.67;1564458;90;21031;-83
2022/04/07 23:07:39;;;;;;;29.10;11.73;;;;;;;6.15;100.00;99671.27;1566706;89;21057;-83
2022/04/07 23:10:08;;;;;;;35.25;12.90;;;;;;;6.19;100.00;99667.55;1576307;88;21034;-83
2022/04/07 23:12:34;;;;;;;33.55;12.73;;;;;;;6.22;100.00;99669.18;1566715;90;21518;-83
2022/04/07 23:15:01;;;;;;;25.50;11.22;;;;;;;6.25;100.00;99664.66;1555318;89;21139;-83
2022/04/07 23:17:28;;;;;;;26.65;11.30;;;;;;;6.26;100.00;99653.42;1565415;90;21219;-83
2022/04/07 23:19:54;;;;;;;27.55;11.00;;;;;;;6.27;100.00;99650.51;1560642;89;21272;-83
2022/04/07 23:22:23;;;;;;;31.95;12.15;;;;;;;6.26;100.00;99644.06;1580075;89;21237;-83
2022/04/07 23:24:51;;;;;;;31.62;12.50;;;;;;;6.25;100.00;99641.92;1573194;90;21188;-83
2022/04/07 23:27:17;;;;;;;30.00;12.35;;;;;;;6.26;100.00;99634.16;1558496;89;21114;-82
2022/04/07 23:29:43;;;;;;;26.97;11.95;;;;;;;6.26;100.00;99634.16;1563887;90;21108;-83
2022/04/07 23:32:11;;;;;;;28.65;11.88;;;;;;;6.27;100.00;99626.97;1576476;88;21155;-83
2022/04/07 23:34:38;;;;;;;31.05;12.18;;;;;;;6.25;100.00;99627.74;1567488;90;21242;-83
2022/04/07 23:37:04;;;;;;;32.15;12.15;;;;;;;6.24;100.00;99620.78;1548567;90;21748;-83
2022/04/07 23:39:31;;;;;;;34.92;12.73;;;;;;;6.23;100.00;99623.16;1571509;90;21193;-83
2022/04/07 23:42:00;;;;;;;29.98;12.35;;;;;;;6.20;100.00;99609.77;1551765;90;21117;-83
2022/04/07 23:44:27;;;;;;;31.73;12.73;;;;;;;6.20;100.00;99611.10;1542740;90;21864;-83
2022/04/07 23:46:54;;;;;;;31.42;12.93;;;;;;;6.18;100.00;99609.73;1563820;90;21160;-83
2022/04/07 23:49:21;;;;;;;31.68;12.45;;;;;;;6.19;100.00;99607.36;1558103;90;21189;-82
2022/04/07 23:51:47;;;;;;;39.98;12.35;;;;;;;6.18;100.00;99609.73;1568253;89;20923;-83
2022/04/07 23:54:14;;;;;;;29.85;12.53;;;;;;;6.14;100.00;99599.55;1587715;86;20972;-83
2022/04/07 23:56:40;;;;;;;35.75;12.85;;;;;;;6.11;100.00;99591.23;1652584;85;21090;-83
2022/04/07 23:59:07;;;;;;;36.05;13.58;;;;;;;6.10;100.00;99597.13;1665851;83;21097;-83
